createdAt,value
2023-01-01T00:00:50.154Z,20.52
2023-01-01T00:03:18.688Z,34.00
2023-01-01T00:05:47.977Z,25.20
2023-01-01T00:08:16.205Z,24.98
2023-01-01T00:10:44.543Z,19.38
2023-01-01T00:13:16.114Z,16.50
2023-01-01T00:15:44.486Z,13.50
2023-01-01T00:18:12.840Z,15.20
2023-01-01T00:20:41.311Z,14.85
2023-01-01T00:23:10.013Z,16.75
2023-01-01T00:25:38.324Z,14.80
2023-01-01T00:28:06.574Z,14.05
2023-01-01T00:30:36.983Z,11.30
2023-01-01T00:33:05.342Z,13.55
2023-01-01T00:35:34.758Z,13.32
2023-01-01T00:38:03.059Z,12.02
2023-01-01T00:40:31.610Z,12.80
2023-01-01T00:43:00.094Z,12.82
2023-01-01T00:45:28.618Z,14.18
2023-01-01T00:47:59.027Z,15.93
2023-01-01T00:50:27.277Z,15.07
2023-01-01T00:52:56.068Z,12.68
2023-01-01T00:55:24.378Z,12.57
2023-01-01T00:57:52.850Z,15.65
2023-01-01T01:00:21.852Z,16.00
2023-01-01T01:02:50.233Z,16.95
2023-01-01T01:05:20.271Z,17.08
2023-01-01T01:07:48.519Z,18.02
2023-01-01T01:10:17.117Z,16.50
2023-01-01T01:12:45.671Z,20.13
2023-01-01T01:15:14.558Z,19.75
2023-01-01T01:17:43.199Z,21.10
2023-01-01T01:20:12.694Z,17.20
2023-01-01T01:22:43.056Z,22.98
2023-01-01T01:25:12.257Z,23.00
2023-01-01T01:27:40.725Z,23.98
2023-01-01T01:30:09.979Z,20.60
2023-01-01T01:32:38.499Z,20.92
2023-01-01T01:35:08.013Z,20.40
2023-01-01T01:37:36.530Z,22.00
2023-01-01T01:40:09.046Z,20.38
2023-01-01T01:42:37.477Z,22.85
2023-01-01T01:45:08.326Z,24.23
2023-01-01T01:47:40.916Z,23.87
2023-01-01T01:50:14.157Z,28.75
2023-01-01T01:52:52.385Z,22.35
2023-01-01T01:55:22.208Z,25.17
2023-01-01T01:57:50.577Z,19.52
2023-01-01T02:00:19.944Z,21.33
2023-01-01T02:02:54.709Z,25.33
2023-01-01T02:05:24.044Z,22.58
2023-01-01T02:07:54.192Z,23.92
2023-01-01T02:10:24.213Z,22.55
2023-01-01T02:12:52.611Z,19.42
2023-01-01T02:15:21.506Z,22.17
2023-01-01T02:17:58.482Z,21.83
2023-01-01T02:20:36.128Z,24.40
2023-01-01T02:23:54.153Z,23.90
2023-01-01T02:26:40.314Z,21.38
2023-01-01T02:29:22.163Z,22.88
2023-01-01T02:34:24.612Z,22.50
2023-01-01T02:36:55.827Z,19.55
2023-01-01T02:39:28.860Z,20.77
2023-01-01T02:41:59.164Z,19.70
2023-01-01T02:44:32.555Z,17.85
2023-01-01T02:47:11.864Z,20.67
2023-01-01T02:49:49.193Z,18.17
2023-01-01T02:52:42.139Z,17.45
2023-01-01T02:55:43.619Z,15.02
2023-01-01T02:58:36.153Z,15.30
2023-01-01T03:01:12.798Z,16.65
2023-01-01T03:03:47.788Z,12.55
2023-01-01T03:06:27.553Z,16.88
2023-01-01T03:09:04.304Z,13.23
2023-01-01T03:11:45.469Z,16.23
2023-01-01T03:14:20.334Z,15.93
2023-01-01T03:16:52.377Z,15.13
2023-01-01T03:19:22.876Z,14.65
2023-01-01T03:21:55.423Z,12.68
2023-01-01T03:24:27.379Z,13.20
2023-01-01T03:27:01.603Z,17.70
2023-01-01T03:29:32.919Z,17.00
2023-01-01T03:32:04.074Z,22.02
2023-01-01T03:34:35.154Z,20.33
2023-01-01T03:37:08.792Z,21.58
2023-01-01T03:39:40.678Z,49.88
2023-01-01T03:42:19.141Z,58.42
2023-01-01T03:44:50.962Z,59.50
2023-01-01T03:47:19.624Z,49.33
2023-01-01T03:49:48.749Z,49.60
2023-01-01T03:52:32.701Z,45.20
2023-01-01T03:55:08.381Z,44.90
2023-01-01T03:57:47.854Z,43.25
2023-01-01T04:00:19.404Z,42.97
2023-01-01T04:02:55.139Z,40.83
2023-01-01T04:05:24.255Z,39.50
2023-01-01T04:07:54.632Z,35.05
2023-01-01T04:10:23.602Z,33.85
2023-01-01T04:12:55.742Z,28.38
2023-01-01T04:15:26.468Z,35.28
2023-01-01T04:17:55.393Z,29.17
2023-01-01T04:20:24.354Z,24.85
2023-01-01T04:22:52.603Z,25.27
2023-01-01T04:25:21.355Z,25.80
2023-01-01T04:27:49.605Z,26.50
2023-01-01T04:30:20.153Z,25.52
2023-01-01T04:32:48.710Z,23.42
2023-01-01T04:35:18.013Z,23.63
2023-01-01T04:37:46.803Z,23.83
2023-01-01T04:40:16.237Z,24.88
2023-01-01T04:42:45.083Z,22.00
2023-01-01T04:45:15.474Z,25.63
2023-01-01T04:47:45.878Z,23.52
2023-01-01T04:50:14.845Z,24.55
2023-01-01T04:52:43.284Z,27.40
2023-01-01T04:55:11.748Z,23.20
2023-01-01T04:57:40.233Z,24.05
2023-01-01T05:00:10.554Z,24.88
2023-01-01T05:02:39.024Z,29.27
2023-01-01T05:05:10.077Z,24.98
2023-01-01T05:07:38.471Z,29.23
2023-01-01T05:10:08.125Z,27.25
2023-01-01T05:12:36.312Z,27.00
2023-01-01T05:15:04.871Z,26.38
2023-01-01T05:17:33.338Z,24.75
2023-01-01T05:20:01.723Z,23.70
2023-01-01T05:22:31.465Z,22.40
2023-01-01T05:24:59.684Z,20.50
2023-01-01T05:27:28.090Z,22.48
2023-01-01T05:29:57.108Z,18.38
2023-01-01T05:32:25.346Z,14.82
2023-01-01T05:34:54.334Z,14.73
2023-01-01T05:37:22.551Z,15.82
2023-01-01T05:39:52.365Z,15.30
2023-01-01T05:42:20.944Z,14.48
2023-01-01T05:44:49.666Z,16.23
2023-01-01T05:47:18.842Z,15.40
2023-01-01T05:49:47.763Z,13.88
2023-01-01T05:52:16.956Z,14.70
2023-01-01T05:54:47.599Z,14.18
2023-01-01T05:57:17.196Z,17.58
2023-01-01T05:59:45.380Z,17.08
2023-01-01T06:02:13.779Z,15.80
2023-01-01T06:04:42.284Z,15.02
2023-01-01T06:07:10.602Z,17.63
2023-01-01T06:09:38.832Z,14.82
2023-01-01T06:12:08.291Z,15.88
2023-01-01T06:14:37.992Z,14.07
2023-01-01T06:17:06.209Z,14.90
2023-01-01T06:19:34.524Z,16.40
2023-01-01T06:22:02.913Z,17.20
2023-01-01T06:24:36.999Z,13.75
2023-01-01T06:27:07.263Z,10.90
2023-01-01T06:29:36.086Z,13.30
2023-01-01T06:32:07.298Z,13.75
2023-01-01T06:34:35.663Z,14.73
2023-01-01T06:37:06.952Z,13.35
2023-01-01T06:39:36.020Z,13.05
2023-01-01T06:42:04.335Z,12.88
2023-01-01T06:44:32.735Z,11.95
2023-01-01T06:47:00.957Z,10.90
2023-01-01T06:49:30.750Z,13.40
2023-01-01T06:51:59.120Z,14.25
2023-01-01T06:54:27.376Z,11.90
2023-01-01T06:56:55.729Z,9.57
2023-01-01T06:59:24.096Z,12.00
2023-01-01T07:01:52.712Z,10.68
2023-01-01T07:04:21.637Z,16.13
2023-01-01T07:06:51.653Z,13.50
2023-01-01T07:09:19.869Z,12.75
2023-01-01T07:11:48.055Z,10.35
2023-01-01T07:14:16.404Z,13.23
2023-01-01T07:16:44.815Z,12.57
2023-01-01T07:19:13.381Z,10.15
2023-01-01T07:21:44.634Z,11.90
2023-01-01T07:24:16.089Z,10.85
2023-01-01T07:26:45.089Z,11.70
2023-01-01T07:29:14.101Z,11.27
2023-01-01T07:31:43.649Z,9.55
2023-01-01T07:34:15.632Z,12.32
2023-01-01T07:36:44.473Z,8.73
2023-01-01T07:39:14.305Z,8.80
2023-01-01T07:41:42.700Z,9.38
2023-01-01T07:44:11.599Z,10.15
2023-01-01T07:46:40.262Z,9.85
2023-01-01T07:49:08.871Z,11.98
2023-01-01T07:51:37.267Z,11.50
2023-01-01T07:54:07.478Z,10.40
2023-01-01T07:56:38.135Z,11.20
2023-01-01T07:59:06.941Z,9.73
2023-01-01T08:01:37.818Z,9.25
2023-01-01T08:04:07.267Z,9.27
2023-01-01T08:06:35.698Z,9.13
2023-01-01T08:09:04.072Z,9.55
2023-01-01T08:11:32.913Z,10.35
2023-01-01T08:14:02.882Z,9.35
2023-01-01T08:16:31.129Z,7.25
2023-01-01T08:18:59.514Z,9.43
2023-01-01T08:21:27.814Z,6.70
2023-01-01T08:23:56.397Z,7.50
2023-01-01T08:26:30.999Z,6.55
2023-01-01T08:28:59.612Z,7.57
2023-01-01T08:31:29.644Z,6.88
2023-01-01T08:33:57.911Z,7.47
2023-01-01T08:36:26.462Z,7.72
2023-01-01T08:38:54.662Z,6.47
2023-01-01T08:41:22.915Z,8.65
2023-01-01T08:43:51.164Z,13.05
2023-01-01T08:46:19.590Z,6.15
2023-01-01T08:48:49.399Z,6.90
2023-01-01T08:51:17.951Z,6.10
2023-01-01T08:53:50.826Z,6.72
2023-01-01T08:56:20.512Z,6.88
2023-01-01T08:58:49.181Z,6.30
2023-01-01T09:01:18.052Z,7.28
2023-01-01T09:03:46.804Z,6.22
2023-01-01T09:06:16.693Z,7.38
2023-01-01T09:08:44.998Z,7.32
2023-01-01T09:11:23.699Z,5.07
2023-01-01T09:13:52.535Z,5.75
2023-01-01T09:16:21.808Z,6.13
2023-01-01T09:18:50.496Z,5.85
2023-01-01T09:21:20.311Z,6.05
2023-01-01T09:23:48.872Z,6.15
2023-01-01T09:26:17.246Z,5.95
2023-01-01T09:28:45.638Z,6.75
2023-01-01T09:31:13.921Z,5.13
2023-01-01T09:33:42.360Z,5.47
2023-01-01T09:36:15.772Z,5.78
2023-01-01T09:38:50.109Z,5.07
2023-01-01T09:41:27.008Z,4.03
2023-01-01T09:44:04.562Z,4.97
2023-01-01T09:46:34.116Z,5.40
2023-01-01T09:49:07.400Z,5.97
2023-01-01T09:51:44.746Z,6.13
2023-01-01T09:56:56.056Z,6.03
2023-01-01T10:01:58.628Z,5.53
2023-01-01T10:04:42.396Z,4.88
2023-01-01T10:07:19.389Z,5.00
2023-01-01T10:09:56.798Z,6.43
2023-01-01T10:12:33.501Z,6.97
2023-01-01T10:15:13.304Z,7.55
2023-01-01T10:17:46.032Z,8.70
2023-01-01T10:20:21.219Z,9.40
2023-01-01T10:22:55.639Z,8.80
2023-01-01T10:25:28.832Z,7.85
2023-01-01T10:28:00.767Z,7.55
2023-01-01T10:30:30.458Z,6.78
2023-01-01T10:32:59.380Z,7.38
2023-01-01T10:35:34.763Z,7.35
2023-01-01T10:38:04.700Z,6.78
2023-01-01T10:40:35.724Z,5.90
2023-01-01T10:43:04.697Z,5.10
2023-01-01T10:45:35.804Z,5.38
2023-01-01T10:48:15.785Z,7.97
2023-01-01T10:50:46.743Z,5.68
2023-01-01T10:53:28.484Z,5.72
2023-01-01T10:56:16.517Z,5.07
2023-01-01T10:58:47.387Z,4.47
2023-01-01T11:04:00.893Z,4.03
2023-01-01T11:06:33.811Z,4.97
2023-01-01T11:09:04.735Z,4.50
2023-01-01T11:11:41.039Z,4.25
2023-01-01T11:14:22.010Z,4.07
2023-01-01T11:19:24.180Z,4.75
2023-01-01T11:21:52.662Z,4.97
2023-01-01T11:24:23.440Z,5.43
2023-01-01T11:26:55.345Z,5.15
2023-01-01T11:29:28.514Z,5.15
2023-01-01T11:31:57.778Z,4.70
2023-01-01T11:34:32.700Z,4.85
2023-01-01T11:37:17.485Z,3.88
2023-01-01T11:39:48.878Z,4.28
2023-01-01T11:42:25.235Z,4.97
2023-01-01T11:44:55.696Z,4.40
2023-01-01T11:47:30.065Z,4.32
2023-01-01T11:50:02.080Z,3.63
2023-01-01T11:52:40.040Z,5.00
2023-01-01T11:55:22.033Z,3.80
2023-01-01T11:58:01.250Z,3.85
2023-01-01T12:00:32.259Z,4.70
2023-01-01T12:03:06.172Z,8.63
2023-01-01T12:05:45.220Z,5.68
2023-01-01T12:08:21.045Z,3.30
2023-01-01T12:10:54.578Z,4.18
2023-01-01T12:13:29.475Z,3.08
2023-01-01T12:16:08.203Z,3.72
2023-01-01T12:18:43.532Z,2.60
2023-01-01T12:21:17.282Z,2.72
2023-01-01T12:23:45.899Z,3.28
2023-01-01T12:26:21.643Z,2.97
2023-01-01T12:29:11.068Z,2.88
2023-01-01T12:31:44.836Z,2.17
2023-01-01T12:34:17.867Z,2.65
2023-01-01T12:36:54.612Z,3.20
2023-01-01T12:40:02.342Z,2.90
2023-01-01T12:42:44.049Z,1.65
2023-01-01T12:45:45.271Z,2.95
2023-01-01T12:48:36.978Z,2.40
2023-01-01T12:51:14.596Z,2.13
2023-01-01T12:53:49.309Z,1.95
2023-01-01T12:56:23.794Z,2.22
2023-01-01T12:58:57.770Z,2.03
2023-01-01T13:01:33.488Z,1.63
2023-01-01T13:04:06.217Z,2.10
2023-01-01T13:06:39.831Z,2.00
2023-01-01T13:09:13.245Z,2.40
2023-01-01T13:11:45.180Z,1.77
2023-01-01T13:14:14.468Z,2.10
2023-01-01T13:16:45.153Z,2.25
2023-01-01T13:19:32.223Z,2.35
2023-01-01T13:22:01.979Z,2.08
2023-01-01T13:24:30.318Z,2.10
2023-01-01T13:26:58.517Z,1.52
2023-01-01T13:29:36.554Z,3.03
2023-01-01T13:32:09.476Z,1.63
2023-01-01T13:35:06.765Z,2.40
2023-01-01T13:37:55.987Z,2.00
2023-01-01T13:40:53.272Z,1.83
2023-01-01T13:43:32.049Z,1.70
2023-01-01T13:46:12.787Z,1.60
2023-01-01T13:49:11.402Z,1.58
2023-01-01T13:52:07.875Z,1.80
2023-01-01T13:55:06.217Z,1.80
2023-01-01T13:58:02.136Z,1.35
2023-01-01T14:00:35.965Z,2.05
2023-01-01T14:03:10.290Z,2.25
2023-01-01T14:05:44.323Z,2.03
2023-01-01T14:08:32.813Z,1.83
2023-01-01T14:11:03.336Z,2.28
2023-01-01T14:13:40.022Z,1.60
2023-01-01T14:16:14.160Z,1.83
2023-01-01T14:18:47.133Z,2.42
2023-01-01T14:21:17.878Z,2.05
2023-01-01T14:23:51.486Z,3.50
2023-01-01T14:26:22.216Z,2.30
2023-01-01T14:31:22.179Z,4.20
2023-01-01T14:33:50.542Z,3.90
2023-01-01T14:36:23.555Z,4.88
2023-01-01T14:38:55.117Z,5.32
2023-01-01T14:41:29.503Z,5.72
2023-01-01T14:44:03.973Z,4.68
2023-01-01T14:46:32.873Z,5.95
2023-01-01T14:49:09.325Z,6.50
2023-01-01T14:51:44.270Z,6.20
2023-01-01T14:54:19.227Z,5.07
2023-01-01T14:56:49.708Z,4.93
2023-01-01T14:59:24.927Z,5.37
2023-01-01T15:02:01.991Z,5.30
2023-01-01T15:04:31.023Z,5.47
2023-01-01T15:07:01.108Z,5.32
2023-01-01T15:09:32.896Z,4.38
2023-01-01T15:12:01.741Z,5.85
2023-01-01T15:14:35.116Z,4.97
2023-01-01T15:17:04.872Z,4.30
2023-01-01T15:19:34.936Z,4.15
2023-01-01T15:22:04.045Z,4.72
2023-01-01T15:24:34.798Z,5.32
2023-01-01T15:27:06.658Z,4.72
2023-01-01T15:29:38.221Z,4.68
2023-01-01T15:34:42.477Z,4.38
2023-01-01T15:37:15.934Z,3.70
2023-01-01T15:39:53.189Z,3.70
2023-01-01T15:42:36.205Z,5.53
2023-01-01T15:45:21.727Z,3.95
2023-01-01T15:47:51.265Z,3.83
2023-01-01T15:50:25.617Z,5.45
2023-01-01T15:52:57.738Z,4.03
2023-01-01T15:55:32.679Z,3.38
2023-01-01T15:58:02.032Z,3.75
2023-01-01T16:00:33.231Z,4.82
2023-01-01T16:03:12.314Z,4.95
2023-01-01T16:05:48.267Z,3.70
2023-01-01T16:08:17.592Z,5.18
2023-01-01T16:10:49.021Z,4.32
2023-01-01T16:13:17.370Z,3.33
2023-01-01T16:15:52.466Z,4.28
2023-01-01T16:18:21.280Z,7.22
2023-01-01T16:20:49.632Z,4.43
2023-01-01T16:23:18.523Z,4.40
2023-01-01T16:25:48.137Z,4.93
2023-01-01T16:28:16.596Z,5.72
2023-01-01T16:30:47.087Z,5.65
2023-01-01T16:33:18.449Z,5.35
2023-01-01T16:35:47.176Z,6.82
2023-01-01T16:38:15.480Z,4.35
2023-01-01T16:40:43.914Z,4.85
2023-01-01T16:43:17.946Z,4.28
2023-01-01T16:45:46.709Z,3.75
2023-01-01T16:48:15.633Z,3.03
2023-01-01T16:50:44.605Z,5.45
2023-01-01T16:53:13.290Z,3.28
2023-01-01T16:55:42.017Z,4.93
2023-01-01T17:01:03.792Z,6.07
2023-01-01T17:03:32.481Z,4.32
2023-01-01T17:06:05.791Z,5.40
2023-01-01T17:08:34.593Z,3.60
2023-01-01T17:11:09.592Z,4.68
2023-01-01T17:13:38.277Z,5.32
2023-01-01T17:16:10.185Z,2.88
2023-01-01T17:19:13.481Z,4.45
2023-01-01T17:21:27.098Z,5.18
2023-01-01T17:23:55.933Z,3.05
2023-01-01T17:26:25.783Z,3.00
2023-01-01T17:29:00.317Z,4.25
2023-01-01T17:31:31.244Z,3.70
2023-01-01T17:33:59.789Z,4.03
2023-01-01T17:36:28.442Z,3.55
2023-01-01T17:38:57.887Z,3.50
2023-01-01T17:41:26.701Z,4.63
2023-01-01T17:43:55.318Z,4.00
2023-01-01T17:46:25.865Z,5.88
2023-01-01T17:48:56.127Z,4.75
2023-01-01T17:51:24.704Z,2.75
2023-01-01T17:53:53.418Z,3.45
2023-01-01T17:56:23.320Z,3.08
2023-01-01T17:58:53.927Z,3.60
2023-01-01T18:01:30.838Z,2.75
2023-01-01T18:04:02.037Z,2.67
2023-01-01T18:06:31.738Z,3.15
2023-01-01T18:09:02.070Z,3.38
2023-01-01T18:11:31.714Z,2.75
2023-01-01T18:14:02.548Z,3.05
2023-01-01T18:16:31.958Z,2.65
2023-01-01T18:19:04.091Z,4.22
2023-01-01T18:21:34.848Z,3.67
2023-01-01T18:24:03.463Z,2.75
2023-01-01T18:26:32.751Z,4.18
2023-01-01T18:29:02.486Z,3.25
2023-01-01T18:31:33.719Z,3.38
2023-01-01T18:34:05.264Z,3.45
2023-01-01T18:36:35.285Z,2.63
2023-01-01T18:39:10.206Z,2.90
2023-01-01T18:41:53.710Z,2.92
2023-01-01T18:44:24.741Z,2.45
2023-01-01T18:46:58.306Z,3.47
2023-01-01T18:49:28.172Z,5.43
2023-01-01T18:51:58.864Z,2.97
2023-01-01T18:54:27.404Z,3.40
2023-01-01T18:57:07.115Z,2.75
2023-01-01T18:59:38.585Z,3.22
2023-01-01T19:02:24.294Z,3.05
2023-01-01T19:04:56.874Z,2.55
2023-01-01T19:07:25.947Z,2.90
2023-01-01T19:09:59.019Z,3.03
2023-01-01T19:12:29.502Z,2.72
2023-01-01T19:14:58.452Z,2.25
2023-01-01T19:17:26.868Z,3.60
2023-01-01T19:19:56.477Z,1.90
2023-01-01T19:22:30.988Z,3.72
2023-01-01T19:24:59.213Z,3.95
2023-01-01T19:27:28.108Z,2.42
2023-01-01T19:29:56.924Z,2.17
2023-01-01T19:32:25.688Z,2.92
2023-01-01T19:34:54.110Z,3.05
2023-01-01T19:37:23.912Z,4.88
2023-01-01T19:39:52.209Z,2.75
2023-01-01T19:42:20.743Z,3.67
2023-01-01T19:44:49.181Z,3.15
2023-01-01T19:47:17.543Z,3.13
2023-01-01T19:49:49.419Z,2.65
2023-01-01T19:52:23.784Z,4.15
2023-01-01T19:54:52.120Z,3.15
2023-01-01T19:57:22.171Z,3.85
2023-01-01T19:59:50.372Z,4.00
2023-01-01T20:02:44.922Z,2.97
2023-01-01T20:05:07.945Z,2.95
2023-01-01T20:07:37.880Z,3.72
2023-01-01T20:10:07.065Z,5.68
2023-01-01T20:12:35.578Z,3.15
2023-01-01T20:15:04.100Z,2.90
2023-01-01T20:17:33.590Z,2.85
2023-01-01T20:20:02.093Z,3.45
2023-01-01T20:22:30.474Z,3.08
2023-01-01T20:25:00.754Z,2.40
2023-01-01T20:27:29.724Z,4.03
2023-01-01T20:29:58.465Z,3.47
2023-01-01T20:32:27.311Z,4.30
2023-01-01T20:34:56.030Z,4.25
2023-01-01T20:37:39.016Z,3.92
2023-01-01T20:40:11.343Z,5.55
2023-01-01T20:42:39.672Z,4.68
2023-01-01T20:45:09.673Z,4.10
2023-01-01T20:47:38.621Z,6.45
2023-01-01T20:50:07.864Z,4.68
2023-01-01T20:52:36.269Z,4.90
2023-01-01T20:55:04.764Z,3.75
2023-01-01T20:57:35.172Z,3.90
2023-01-01T21:00:03.557Z,4.35
2023-01-01T21:02:32.721Z,4.75
2023-01-01T21:05:01.744Z,4.63
2023-01-01T21:07:30.201Z,4.13
2023-01-01T21:09:58.535Z,5.57
2023-01-01T21:12:27.329Z,3.95
2023-01-01T21:14:58.798Z,4.28
2023-01-01T21:17:28.977Z,5.15
2023-01-01T21:19:59.450Z,4.85
2023-01-01T21:22:29.387Z,3.63
2023-01-01T21:25:16.795Z,3.92
2023-01-01T21:27:46.971Z,5.13
2023-01-01T21:30:17.036Z,7.55
2023-01-01T21:32:47.352Z,6.53
2023-01-01T21:35:22.498Z,5.75
2023-01-01T21:37:52.923Z,5.57
2023-01-01T21:40:40.157Z,5.43
2023-01-01T21:43:24.272Z,4.88
2023-01-01T21:45:55.326Z,11.05
2023-01-01T21:48:28.890Z,5.57
2023-01-01T21:50:57.613Z,6.03
2023-01-01T21:53:30.031Z,5.88
2023-01-01T21:55:58.853Z,5.97
2023-01-01T21:58:48.194Z,22.85
2023-01-01T22:01:23.107Z,9.85
2023-01-01T22:03:59.200Z,5.28
2023-01-01T22:06:39.997Z,4.60
2023-01-01T22:09:16.268Z,5.55
2023-01-01T22:11:45.677Z,4.10
2023-01-01T22:14:16.822Z,3.60
2023-01-01T22:16:48.609Z,4.57
2023-01-01T22:19:18.925Z,4.18
2023-01-01T22:21:48.121Z,3.35
2023-01-01T22:24:33.586Z,4.75
2023-01-01T22:27:22.041Z,6.45
2023-01-01T22:29:50.377Z,4.53
2023-01-01T22:32:25.713Z,5.07
2023-01-01T22:34:55.987Z,3.15
2023-01-01T22:37:38.773Z,4.57
2023-01-01T22:40:16.497Z,4.22
2023-01-01T22:42:45.219Z,3.28
2023-01-01T22:45:17.228Z,2.65
2023-01-01T22:47:49.093Z,2.78
2023-01-01T22:50:21.062Z,3.40
2023-01-01T22:52:49.526Z,3.55
2023-01-01T22:55:18.268Z,2.38
2023-01-01T22:57:46.838Z,2.78
2023-01-01T23:00:17.618Z,4.30
2023-01-01T23:02:48.102Z,3.90
2023-01-01T23:05:16.827Z,3.25
2023-01-01T23:07:45.563Z,3.97
2023-01-01T23:10:15.550Z,4.07
2023-01-01T23:12:44.370Z,2.92
2023-01-01T23:15:30.236Z,3.15
2023-01-01T23:18:00.283Z,4.07
2023-01-01T23:20:28.920Z,3.58
2023-01-01T23:22:58.029Z,3.13
2023-01-01T23:25:28.891Z,3.35
2023-01-01T23:27:57.611Z,3.15
2023-01-01T23:30:25.995Z,2.90
2023-01-01T23:32:54.354Z,2.67
2023-01-01T23:35:24.481Z,3.00
2023-01-01T23:37:53.025Z,2.85
2023-01-01T23:40:21.951Z,5.15
2023-01-01T23:42:51.110Z,2.67
2023-01-01T23:45:19.704Z,2.30
2023-01-01T23:47:48.158Z,2.42
2023-01-01T23:50:16.619Z,2.88
2023-01-01T23:52:46.908Z,3.35
2023-01-01T23:55:15.280Z,3.72
2023-01-01T23:57:43.941Z,3.72
